createdAt,value
2018-12-03T00:01:54.159Z,99.90
2018-12-03T00:06:57.662Z,99.90
2018-12-03T00:12:01.258Z,99.90
2018-12-03T00:17:04.786Z,99.90
2018-12-03T00:22:08.292Z,99.90
2018-12-03T00:27:12.052Z,99.90
2018-12-03T00:32:23.460Z,99.90
2018-12-03T00:37:28.047Z,99.90
2018-12-03T00:42:31.546Z,99.90
2018-12-03T00:47:35.143Z,99.90
2018-12-03T00:52:39.323Z,99.90
2018-12-03T00:57:43.004Z,99.90
2018-12-03T01:02:46.913Z,99.90
2018-12-03T01:07:51.166Z,99.90
2018-12-03T01:12:55.374Z,99.90
2018-12-03T01:17:59.045Z,99.90
2018-12-03T01:23:02.715Z,99.90
2018-12-03T01:28:06.795Z,99.90
2018-12-03T01:33:10.691Z,99.90
2018-12-03T01:38:14.648Z,99.90
2018-12-03T01:43:19.412Z,99.90
2018-12-03T01:48:22.884Z,99.90
2018-12-03T01:53:26.644Z,99.90
2018-12-03T01:58:30.482Z,99.90
2018-12-03T02:03:34.625Z,99.90
2018-12-03T02:08:39.351Z,99.90
2018-12-03T02:13:43.230Z,99.90
2018-12-03T02:18:46.705Z,99.90
2018-12-03T02:23:50.163Z,99.90
2018-12-03T02:28:53.618Z,99.90
2018-12-03T02:33:57.305Z,99.90
2018-12-03T02:39:01.347Z,99.90
2018-12-03T02:44:05.523Z,99.90
2018-12-03T02:49:09.323Z,99.90
2018-12-03T02:54:13.134Z,99.90
2018-12-03T02:59:16.635Z,99.90
2018-12-03T03:04:20.135Z,99.90
2018-12-03T03:09:23.610Z,99.90
2018-12-03T03:14:27.402Z,99.90
2018-12-03T03:19:31.073Z,99.90
2018-12-03T03:24:35.011Z,99.90
2018-12-03T03:29:39.151Z,99.90
2018-12-03T03:34:42.973Z,99.90
2018-12-03T03:39:46.480Z,99.90
2018-12-03T03:44:50.069Z,99.90
2018-12-03T03:49:53.555Z,99.90
2018-12-03T03:54:58.265Z,99.90
2018-12-03T04:00:01.998Z,99.90
2018-12-03T04:05:07.058Z,99.90
2018-12-03T04:10:11.947Z,99.90
2018-12-03T04:15:16.382Z,99.90
2018-12-03T04:20:20.959Z,99.90
2018-12-03T04:25:25.551Z,99.90
2018-12-03T04:30:29.071Z,99.90
2018-12-03T04:35:32.819Z,99.90
2018-12-03T04:40:38.132Z,99.90
2018-12-03T04:45:41.843Z,99.90
2018-12-03T04:50:45.457Z,99.90
2018-12-03T04:55:49.323Z,99.90
2018-12-03T05:00:52.813Z,99.90
2018-12-03T05:05:56.300Z,99.90
2018-12-03T05:10:59.957Z,99.90
2018-12-03T05:16:03.618Z,99.90
2018-12-03T05:21:07.108Z,99.90
2018-12-03T05:26:10.572Z,99.90
2018-12-03T05:31:14.106Z,99.90
2018-12-03T05:36:17.738Z,99.90
2018-12-03T05:41:21.403Z,99.90
2018-12-03T05:46:25.083Z,99.90
2018-12-03T05:51:29.478Z,99.90
2018-12-03T05:56:33.040Z,99.90
2018-12-03T06:01:36.510Z,99.90
2018-12-03T06:06:40.101Z,99.90
2018-12-03T06:11:43.746Z,99.90
2018-12-03T06:16:47.294Z,99.90
2018-12-03T06:21:55.447Z,99.90
2018-12-03T06:27:00.176Z,99.90
2018-12-03T06:32:04.101Z,99.90
2018-12-03T06:37:07.772Z,99.90
2018-12-03T06:42:11.534Z,99.90
2018-12-03T06:47:15.421Z,99.90
2018-12-03T06:52:19.245Z,99.90
2018-12-03T06:57:22.695Z,99.90
2018-12-03T07:02:27.633Z,99.90
2018-12-03T07:07:29.870Z,99.90
2018-12-03T07:12:33.325Z,99.90
2018-12-03T07:17:37.001Z,99.90
2018-12-03T07:22:40.901Z,99.90
2018-12-03T07:27:45.286Z,99.90
2018-12-03T07:32:49.821Z,99.90
2018-12-03T07:37:54.517Z,99.90
2018-12-03T07:42:58.006Z,99.90
2018-12-03T07:48:01.803Z,99.90
2018-12-03T07:53:06.193Z,99.90
2018-12-03T07:58:14.497Z,99.90
2018-12-03T08:03:17.967Z,99.90
2018-12-03T08:08:21.606Z,99.90
2018-12-03T08:13:25.238Z,99.90
2018-12-03T08:18:28.989Z,99.90
2018-12-03T08:23:39.042Z,99.90
2018-12-03T08:28:43.399Z,99.90
2018-12-03T08:33:46.857Z,99.90
2018-12-03T08:38:50.737Z,99.90
2018-12-03T08:43:54.382Z,99.90
2018-12-03T08:48:57.946Z,99.90
2018-12-03T08:54:01.618Z,99.90
2018-12-03T08:59:06.228Z,99.90
2018-12-03T09:04:13.219Z,99.90
2018-12-03T09:09:17.751Z,99.90
2018-12-03T09:14:28.377Z,99.90
2018-12-03T09:19:32.130Z,99.90
2018-12-03T09:24:35.753Z,99.90
2018-12-03T09:29:39.542Z,99.90
2018-12-03T09:34:43.116Z,99.90
2018-12-03T09:39:49.287Z,99.90
2018-12-03T09:44:52.881Z,99.90
2018-12-03T09:49:56.743Z,99.90
2018-12-03T09:55:00.621Z,99.90
2018-12-03T10:00:05.427Z,99.90
2018-12-03T10:05:09.244Z,99.90
2018-12-03T10:10:14.482Z,99.90
2018-12-03T10:15:32.800Z,98.50
2018-12-03T10:20:42.006Z,99.90
2018-12-03T10:25:39.853Z,99.90
2018-12-03T10:30:44.030Z,99.90
2018-12-03T10:35:48.588Z,99.90
2018-12-03T10:40:58.824Z,99.90
2018-12-03T10:46:03.363Z,99.90
2018-12-03T10:51:13.052Z,99.90
2018-12-03T10:56:17.344Z,99.90
2018-12-03T11:01:24.906Z,99.90
2018-12-03T11:06:28.977Z,99.90
2018-12-03T11:11:33.448Z,99.90
2018-12-03T11:16:38.750Z,99.90
2018-12-03T11:21:42.311Z,99.90
2018-12-03T11:26:48.060Z,99.90
2018-12-03T11:31:51.963Z,99.90
2018-12-03T11:36:58.894Z,99.10
2018-12-03T11:42:04.923Z,99.40
2018-12-03T11:47:09.967Z,98.40
2018-12-03T11:52:13.901Z,99.90
2018-12-03T11:57:17.646Z,99.30
2018-12-03T12:02:21.369Z,99.20
2018-12-03T12:07:25.144Z,99.00
2018-12-03T12:12:28.771Z,99.30
2018-12-03T12:17:32.347Z,98.40
2018-12-03T12:22:35.885Z,98.60
2018-12-03T12:27:43.364Z,98.10
2018-12-03T12:32:47.077Z,98.40
2018-12-03T12:37:50.627Z,97.50
2018-12-03T12:42:54.605Z,97.30
2018-12-03T12:47:58.134Z,97.50
2018-12-03T12:53:01.754Z,97.50
2018-12-03T12:58:06.254Z,98.40
2018-12-03T13:03:10.033Z,97.40
2018-12-03T13:08:13.762Z,98.00
2018-12-03T13:13:17.985Z,97.40
2018-12-03T13:18:21.642Z,98.40
2018-12-03T13:23:25.563Z,98.10
2018-12-03T13:28:29.214Z,98.50
2018-12-03T13:33:32.807Z,98.40
2018-12-03T13:38:36.775Z,98.90
2018-12-03T13:43:40.794Z,98.80
2018-12-03T13:48:45.395Z,99.10
2018-12-03T13:53:49.217Z,98.40
2018-12-03T13:58:52.925Z,98.70
2018-12-03T14:04:01.735Z,98.00
2018-12-03T14:11:30.334Z,98.40
2018-12-03T14:16:52.233Z,98.90
2018-12-03T14:22:03.926Z,99.90
2018-12-03T14:27:08.670Z,99.90
2018-12-03T14:32:12.161Z,99.90
2018-12-03T14:37:15.700Z,99.90
2018-12-03T14:42:19.216Z,99.90
2018-12-03T14:47:23.321Z,99.90
2018-12-03T14:52:26.996Z,99.90
2018-12-03T14:57:30.847Z,99.90
2018-12-03T15:03:06.349Z,99.90
2018-12-03T15:08:09.946Z,99.90
2018-12-03T15:13:13.614Z,99.90
2018-12-03T15:18:17.289Z,99.90
2018-12-03T15:23:21.076Z,99.90
2018-12-03T15:28:24.603Z,99.90
2018-12-03T15:33:28.166Z,99.90
2018-12-03T15:38:31.860Z,99.90
2018-12-03T15:43:36.259Z,99.90
2018-12-03T15:48:39.798Z,99.90
2018-12-03T15:53:43.405Z,99.90
2018-12-03T15:58:50.460Z,99.90
2018-12-03T16:03:53.946Z,99.90
2018-12-03T16:08:57.411Z,99.90
2018-12-03T16:14:00.973Z,99.90
2018-12-03T16:19:04.550Z,99.90
2018-12-03T16:24:08.026Z,99.90
2018-12-03T16:29:12.482Z,99.90
2018-12-03T16:34:16.246Z,99.90
2018-12-03T16:39:19.973Z,99.90
2018-12-03T16:44:23.794Z,99.90
2018-12-03T16:49:35.556Z,99.90
2018-12-03T16:59:58.058Z,99.90
2018-12-03T17:05:01.524Z,99.90
2018-12-03T17:10:08.550Z,99.90
2018-12-03T17:15:12.161Z,99.90
2018-12-03T17:20:25.031Z,99.90
2018-12-03T17:25:28.605Z,99.90
2018-12-03T17:30:32.194Z,99.90
2018-12-03T17:35:35.779Z,99.90
2018-12-03T17:40:39.330Z,99.90
2018-12-03T17:45:43.877Z,99.90
2018-12-03T17:50:47.624Z,99.90
2018-12-03T17:55:51.680Z,99.90
2018-12-03T18:00:55.216Z,99.90
2018-12-03T18:05:59.026Z,99.90
2018-12-03T18:11:03.075Z,99.90
2018-12-03T18:16:06.980Z,99.90
2018-12-03T18:21:10.641Z,99.90
2018-12-03T18:26:15.182Z,99.90
2018-12-03T18:31:19.117Z,99.90
2018-12-03T18:36:22.904Z,99.90
2018-12-03T18:41:26.783Z,99.90
2018-12-03T18:46:30.706Z,99.90
2018-12-03T18:51:34.232Z,99.90
2018-12-03T18:56:38.712Z,99.90
2018-12-03T19:01:42.271Z,99.90
2018-12-03T19:06:45.896Z,99.90
2018-12-03T19:11:49.728Z,99.90
2018-12-03T19:16:54.211Z,99.90
2018-12-03T19:21:58.990Z,99.90
2018-12-03T19:27:02.834Z,99.90
2018-12-03T19:32:06.456Z,99.90
2018-12-03T19:37:10.228Z,99.90
2018-12-03T19:42:14.063Z,99.90
2018-12-03T19:47:17.783Z,99.90
2018-12-03T19:52:22.007Z,99.90
2018-12-03T19:57:29.799Z,99.90
2018-12-03T20:02:33.975Z,99.90
2018-12-03T20:07:37.722Z,99.90
2018-12-03T20:12:41.315Z,99.90
2018-12-03T20:17:44.815Z,99.90
2018-12-03T20:22:57.669Z,99.90
2018-12-03T20:28:07.481Z,99.90
2018-12-03T20:33:15.533Z,99.90
2018-12-03T20:38:29.174Z,99.90
2018-12-03T20:43:33.423Z,99.90
2018-12-03T20:48:52.497Z,99.90
2018-12-03T20:53:56.557Z,99.90
2018-12-03T20:59:00.206Z,99.90
2018-12-03T21:04:03.723Z,99.90
2018-12-03T21:09:07.381Z,99.90
2018-12-03T21:14:11.331Z,99.90
2018-12-03T21:19:15.338Z,99.90
2018-12-03T21:24:50.853Z,99.90
2018-12-03T21:29:54.945Z,99.90
2018-12-03T21:34:59.579Z,99.90
2018-12-03T21:40:04.558Z,99.90
2018-12-03T21:45:08.176Z,99.90
2018-12-03T21:50:11.696Z,99.90
2018-12-03T21:55:15.356Z,99.90
2018-12-03T22:00:20.614Z,99.90
2018-12-03T22:05:24.459Z,99.90
2018-12-03T22:10:28.161Z,99.90
2018-12-03T22:15:31.704Z,99.90
2018-12-03T22:20:35.550Z,99.90
2018-12-03T22:25:39.056Z,99.90
2018-12-03T22:30:42.542Z,99.90
2018-12-03T22:35:46.050Z,99.90
2018-12-03T22:40:49.585Z,99.90
2018-12-03T22:45:53.537Z,99.90
2018-12-03T22:50:57.260Z,99.90
2018-12-03T22:56:01.491Z,99.90
2018-12-03T23:01:07.483Z,99.90
2018-12-03T23:06:11.735Z,99.90
2018-12-03T23:11:15.947Z,99.90
2018-12-03T23:16:19.564Z,99.90
2018-12-03T23:21:23.103Z,99.90
2018-12-03T23:26:26.738Z,99.90
2018-12-03T23:31:30.205Z,99.90
2018-12-03T23:36:33.696Z,99.90
2018-12-03T23:41:37.274Z,99.90
2018-12-03T23:46:41.788Z,99.90
2018-12-03T23:51:45.824Z,99.90
2018-12-03T23:56:50.419Z,99.90
